sensor_id;sensor_type;location;lat;lon;timestamp;P1;durP1;ratioP1;P2;durP2;ratioP2
6414;SDS011;3240;48.790;9.210;2022-12-31T00:00:47;4.23;;;0.83;;
6414;SDS011;3240;48.790;9.210;2022-12-31T00:03:15;0.70;;;0.50;;
6414;SDS011;3240;48.790;9.210;2022-12-31T00:05:44;0.60;;;0.50;;
6414;SDS011;3240;48.790;9.210;2022-12-31T00:08:12;1.17;;;0.70;;
6414;SDS011;3240;48.790;9.210;2022-12-31T00:10:40;0.60;;;0.40;;
6414;SDS011;3240;48.790;9.210;2022-12-31T00:13:09;0.90;;;0.60;;
6414;SDS011;3240;48.790;9.210;2022-12-31T00:15:38;0.70;;;0.50;;
6414;SDS011;3240;48.790;9.210;2022-12-31T00:18:06;0.63;;;0.40;;
6414;SDS011;3240;48.790;9.210;2022-12-31T00:20:37;0.83;;;0.60;;
6414;SDS011;3240;48.790;9.210;2022-12-31T00:23:02;0.80;;;0.57;;
6414;SDS011;3240;48.790;9.210;2022-12-31T00:25:30;1.00;;;0.63;;
6414;SDS011;3240;48.790;9.210;2022-12-31T00:27:59;1.87;;;0.50;;
6414;SDS011;3240;48.790;9.210;2022-12-31T00:30:27;1.23;;;0.80;;
6414;SDS011;3240;48.790;9.210;2022-12-31T00:32:55;1.00;;;0.70;;
6414;SDS011;3240;48.790;9.210;2022-12-31T00:35:24;1.57;;;0.50;;
6414;SDS011;3240;48.790;9.210;2022-12-31T00:37:52;0.90;;;0.67;;
6414;SDS011;3240;48.790;9.210;2022-12-31T00:40:20;1.30;;;0.60;;
6414;SDS011;3240;48.790;9.210;2022-12-31T00:42:49;1.43;;;0.80;;
6414;SDS011;3240;48.790;9.210;2022-12-31T00:45:17;8.83;;;1.60;;
6414;SDS011;3240;48.790;9.210;2022-12-31T00:47:45;0.73;;;0.47;;
6414;SDS011;3240;48.790;9.210;2022-12-31T00:50:14;0.90;;;0.60;;
6414;SDS011;3240;48.790;9.210;2022-12-31T00:52:42;0.50;;;0.40;;
6414;SDS011;3240;48.790;9.210;2022-12-31T00:55:10;0.80;;;0.50;;
6414;SDS011;3240;48.790;9.210;2022-12-31T00:57:39;3.30;;;0.70;;
6414;SDS011;3240;48.790;9.210;2022-12-31T01:00:08;0.67;;;0.50;;
6414;SDS011;3240;48.790;9.210;2022-12-31T01:02:36;0.70;;;0.60;;
6414;SDS011;3240;48.790;9.210;2022-12-31T01:05:05;1.00;;;0.70;;
6414;SDS011;3240;48.790;9.210;2022-12-31T01:07:33;1.07;;;0.60;;
6414;SDS011;3240;48.790;9.210;2022-12-31T01:10:02;2.53;;;0.70;;
6414;SDS011;3240;48.790;9.210;2022-12-31T01:12:30;0.90;;;0.57;;
6414;SDS011;3240;48.790;9.210;2022-12-31T01:14:59;0.70;;;0.60;;
6414;SDS011;3240;48.790;9.210;2022-12-31T01:17:27;0.90;;;0.73;;
6414;SDS011;3240;48.790;9.210;2022-12-31T01:19:55;0.63;;;0.60;;
6414;SDS011;3240;48.790;9.210;2022-12-31T01:22:24;0.83;;;0.70;;
6414;SDS011;3240;48.790;9.210;2022-12-31T01:24:52;1.17;;;0.70;;
6414;SDS011;3240;48.790;9.210;2022-12-31T01:27:20;1.33;;;0.73;;
6414;SDS011;3240;48.790;9.210;2022-12-31T01:29:49;0.60;;;0.50;;
6414;SDS011;3240;48.790;9.210;2022-12-31T01:32:17;1.10;;;0.60;;
6414;SDS011;3240;48.790;9.210;2022-12-31T01:34:46;0.80;;;0.60;;
6414;SDS011;3240;48.790;9.210;2022-12-31T01:37:14;2.03;;;0.60;;
6414;SDS011;3240;48.790;9.210;2022-12-31T01:39:42;2.50;;;0.77;;
6414;SDS011;3240;48.790;9.210;2022-12-31T01:42:10;0.80;;;0.67;;
6414;SDS011;3240;48.790;9.210;2022-12-31T01:44:44;1.53;;;0.90;;
6414;SDS011;3240;48.790;9.210;2022-12-31T01:47:11;1.27;;;0.70;;
6414;SDS011;3240;48.790;9.210;2022-12-31T01:49:40;1.57;;;0.77;;
6414;SDS011;3240;48.790;9.210;2022-12-31T01:52:09;1.27;;;0.70;;
6414;SDS011;3240;48.790;9.210;2022-12-31T01:54:38;2.00;;;0.80;;
6414;SDS011;3240;48.790;9.210;2022-12-31T01:57:05;0.93;;;0.70;;
6414;SDS011;3240;48.790;9.210;2022-12-31T01:59:33;1.23;;;0.50;;
6414;SDS011;3240;48.790;9.210;2022-12-31T02:02:02;1.20;;;0.67;;
6414;SDS011;3240;48.790;9.210;2022-12-31T02:04:30;1.23;;;0.60;;
6414;SDS011;3240;48.790;9.210;2022-12-31T02:07:01;0.60;;;0.50;;
6414;SDS011;3240;48.790;9.210;2022-12-31T02:09:28;1.40;;;0.63;;
6414;SDS011;3240;48.790;9.210;2022-12-31T02:11:56;0.90;;;0.70;;
6414;SDS011;3240;48.790;9.210;2022-12-31T02:14:27;1.63;;;0.90;;
6414;SDS011;3240;48.790;9.210;2022-12-31T02:16:59;0.90;;;0.60;;
6414;SDS011;3240;48.790;9.210;2022-12-31T02:19:31;3.23;;;0.80;;
6414;SDS011;3240;48.790;9.210;2022-12-31T02:21:58;2.17;;;0.77;;
6414;SDS011;3240;48.790;9.210;2022-12-31T02:24:28;0.80;;;0.80;;
6414;SDS011;3240;48.790;9.210;2022-12-31T02:26:54;1.57;;;0.67;;
6414;SDS011;3240;48.790;9.210;2022-12-31T02:29:32;1.07;;;0.70;;
6414;SDS011;3240;48.790;9.210;2022-12-31T02:31:56;1.07;;;0.57;;
6414;SDS011;3240;48.790;9.210;2022-12-31T02:34:26;0.87;;;0.53;;
6414;SDS011;3240;48.790;9.210;2022-12-31T02:36:53;1.70;;;0.50;;
6414;SDS011;3240;48.790;9.210;2022-12-31T02:39:21;1.10;;;0.70;;
6414;SDS011;3240;48.790;9.210;2022-12-31T02:41:50;2.13;;;0.50;;
6414;SDS011;3240;48.790;9.210;2022-12-31T02:44:24;0.70;;;0.70;;
6414;SDS011;3240;48.790;9.210;2022-12-31T02:46:55;1.47;;;0.60;;
6414;SDS011;3240;48.790;9.210;2022-12-31T02:49:22;0.60;;;0.50;;
6414;SDS011;3240;48.790;9.210;2022-12-31T02:51:56;0.70;;;0.50;;
6414;SDS011;3240;48.790;9.210;2022-12-31T02:57:10;0.70;;;0.50;;
6414;SDS011;3240;48.790;9.210;2022-12-31T02:59:39;1.23;;;0.50;;
6414;SDS011;3240;48.790;9.210;2022-12-31T03:02:13;3.83;;;2.40;;
6414;SDS011;3240;48.790;9.210;2022-12-31T03:04:43;0.57;;;0.50;;
6414;SDS011;3240;48.790;9.210;2022-12-31T03:07:12;1.17;;;0.83;;
6414;SDS011;3240;48.790;9.210;2022-12-31T03:09:39;1.57;;;0.80;;
6414;SDS011;3240;48.790;9.210;2022-12-31T03:12:08;1.33;;;0.70;;
6414;SDS011;3240;48.790;9.210;2022-12-31T03:14:41;0.70;;;0.60;;
6414;SDS011;3240;48.790;9.210;2022-12-31T03:17:10;1.47;;;0.70;;
6414;SDS011;3240;48.790;9.210;2022-12-31T03:19:38;1.53;;;0.90;;
6414;SDS011;3240;48.790;9.210;2022-12-31T03:22:24;1.83;;;1.13;;
6414;SDS011;3240;48.790;9.210;2022-12-31T03:24:56;2.10;;;0.80;;
6414;SDS011;3240;48.790;9.210;2022-12-31T03:27:29;3.57;;;0.80;;
6414;SDS011;3240;48.790;9.210;2022-12-31T03:29:57;2.13;;;0.83;;
6414;SDS011;3240;48.790;9.210;2022-12-31T03:32:26;1.23;;;0.73;;
6414;SDS011;3240;48.790;9.210;2022-12-31T03:34:54;1.03;;;0.80;;
6414;SDS011;3240;48.790;9.210;2022-12-31T03:37:22;0.50;;;0.50;;
6414;SDS011;3240;48.790;9.210;2022-12-31T03:39:51;1.50;;;0.70;;
6414;SDS011;3240;48.790;9.210;2022-12-31T03:42:19;1.00;;;0.70;;
6414;SDS011;3240;48.790;9.210;2022-12-31T03:44:47;2.10;;;0.80;;
6414;SDS011;3240;48.790;9.210;2022-12-31T03:47:16;1.27;;;0.53;;
6414;SDS011;3240;48.790;9.210;2022-12-31T03:49:44;1.03;;;0.80;;
6414;SDS011;3240;48.790;9.210;2022-12-31T03:52:12;0.70;;;0.60;;
6414;SDS011;3240;48.790;9.210;2022-12-31T03:54:41;0.90;;;0.60;;
6414;SDS011;3240;48.790;9.210;2022-12-31T03:57:09;0.67;;;0.53;;
6414;SDS011;3240;48.790;9.210;2022-12-31T03:59:37;0.60;;;0.50;;
6414;SDS011;3240;48.790;9.210;2022-12-31T04:02:06;1.00;;;0.57;;
6414;SDS011;3240;48.790;9.210;2022-12-31T04:04:34;0.70;;;0.57;;
6414;SDS011;3240;48.790;9.210;2022-12-31T04:07:02;0.80;;;0.63;;
6414;SDS011;3240;48.790;9.210;2022-12-31T04:09:31;0.80;;;0.60;;
6414;SDS011;3240;48.790;9.210;2022-12-31T04:11:59;2.33;;;0.50;;
6414;SDS011;3240;48.790;9.210;2022-12-31T04:14:27;0.70;;;0.50;;
6414;SDS011;3240;48.790;9.210;2022-12-31T04:16:56;4.70;;;0.70;;
6414;SDS011;3240;48.790;9.210;2022-12-31T04:19:24;2.53;;;0.57;;
6414;SDS011;3240;48.790;9.210;2022-12-31T04:21:52;1.07;;;0.60;;
6414;SDS011;3240;48.790;9.210;2022-12-31T04:24:21;0.80;;;0.67;;
6414;SDS011;3240;48.790;9.210;2022-12-31T04:26:49;1.23;;;0.77;;
6414;SDS011;3240;48.790;9.210;2022-12-31T04:29:17;3.37;;;0.73;;
6414;SDS011;3240;48.790;9.210;2022-12-31T04:31:46;0.60;;;0.50;;
6414;SDS011;3240;48.790;9.210;2022-12-31T04:34:14;2.00;;;0.60;;
6414;SDS011;3240;48.790;9.210;2022-12-31T04:36:42;2.53;;;0.83;;
6414;SDS011;3240;48.790;9.210;2022-12-31T04:39:11;2.20;;;0.67;;
6414;SDS011;3240;48.790;9.210;2022-12-31T04:41:39;2.83;;;0.50;;
6414;SDS011;3240;48.790;9.210;2022-12-31T04:44:07;3.27;;;0.50;;
6414;SDS011;3240;48.790;9.210;2022-12-31T04:46:36;1.43;;;0.47;;
6414;SDS011;3240;48.790;9.210;2022-12-31T04:49:04;0.50;;;0.47;;
6414;SDS011;3240;48.790;9.210;2022-12-31T04:51:32;0.87;;;0.57;;
6414;SDS011;3240;48.790;9.210;2022-12-31T04:54:01;1.33;;;0.60;;
6414;SDS011;3240;48.790;9.210;2022-12-31T04:56:29;0.80;;;0.60;;
6414;SDS011;3240;48.790;9.210;2022-12-31T04:58:57;0.63;;;0.50;;
6414;SDS011;3240;48.790;9.210;2022-12-31T05:01:26;1.80;;;0.60;;
6414;SDS011;3240;48.790;9.210;2022-12-31T05:03:54;0.70;;;0.40;;
6414;SDS011;3240;48.790;9.210;2022-12-31T05:06:22;1.27;;;0.50;;
6414;SDS011;3240;48.790;9.210;2022-12-31T05:08:51;0.70;;;0.50;;
6414;SDS011;3240;48.790;9.210;2022-12-31T05:11:19;1.20;;;0.70;;
6414;SDS011;3240;48.790;9.210;2022-12-31T05:13:47;1.60;;;0.60;;
6414;SDS011;3240;48.790;9.210;2022-12-31T05:16:16;2.37;;;0.70;;
6414;SDS011;3240;48.790;9.210;2022-12-31T05:18:44;1.00;;;0.70;;
6414;SDS011;3240;48.790;9.210;2022-12-31T05:21:14;1.57;;;0.70;;
6414;SDS011;3240;48.790;9.210;2022-12-31T05:23:41;1.43;;;0.70;;
6414;SDS011;3240;48.790;9.210;2022-12-31T05:26:09;1.00;;;0.67;;
6414;SDS011;3240;48.790;9.210;2022-12-31T05:28:38;0.93;;;0.80;;
6414;SDS011;3240;48.790;9.210;2022-12-31T05:31:06;0.60;;;0.50;;
6414;SDS011;3240;48.790;9.210;2022-12-31T05:33:34;0.77;;;0.60;;
6414;SDS011;3240;48.790;9.210;2022-12-31T05:36:02;1.53;;;0.57;;
6414;SDS011;3240;48.790;9.210;2022-12-31T05:38:31;2.30;;;0.83;;
6414;SDS011;3240;48.790;9.210;2022-12-31T05:41:01;2.23;;;0.73;;
6414;SDS011;3240;48.790;9.210;2022-12-31T05:43:28;2.07;;;0.60;;
6414;SDS011;3240;48.790;9.210;2022-12-31T05:45:59;0.70;;;0.50;;
6414;SDS011;3240;48.790;9.210;2022-12-31T05:48:25;0.80;;;0.57;;
6414;SDS011;3240;48.790;9.210;2022-12-31T05:50:53;0.73;;;0.60;;
6414;SDS011;3240;48.790;9.210;2022-12-31T05:53:21;1.30;;;0.60;;
6414;SDS011;3240;48.790;9.210;2022-12-31T05:55:50;0.97;;;0.60;;
6414;SDS011;3240;48.790;9.210;2022-12-31T05:58:18;0.90;;;0.60;;
6414;SDS011;3240;48.790;9.210;2022-12-31T06:00:46;0.70;;;0.57;;
6414;SDS011;3240;48.790;9.210;2022-12-31T06:03:15;0.77;;;0.50;;
6414;SDS011;3240;48.790;9.210;2022-12-31T06:05:43;0.60;;;0.50;;
6414;SDS011;3240;48.790;9.210;2022-12-31T06:08:11;1.00;;;0.50;;
6414;SDS011;3240;48.790;9.210;2022-12-31T06:10:39;0.80;;;0.73;;
6414;SDS011;3240;48.790;9.210;2022-12-31T06:13:07;1.00;;;0.70;;
6414;SDS011;3240;48.790;9.210;2022-12-31T06:15:36;0.93;;;0.60;;
6414;SDS011;3240;48.790;9.210;2022-12-31T06:18:04;1.43;;;0.50;;
6414;SDS011;3240;48.790;9.210;2022-12-31T06:20:32;1.37;;;0.70;;
6414;SDS011;3240;48.790;9.210;2022-12-31T06:23:00;1.53;;;0.47;;
6414;SDS011;3240;48.790;9.210;2022-12-31T06:25:28;0.60;;;0.50;;
6414;SDS011;3240;48.790;9.210;2022-12-31T06:27:56;1.53;;;0.60;;
6414;SDS011;3240;48.790;9.210;2022-12-31T06:30:24;1.43;;;0.67;;
6414;SDS011;3240;48.790;9.210;2022-12-31T06:32:53;1.17;;;0.60;;
6414;SDS011;3240;48.790;9.210;2022-12-31T06:35:20;2.00;;;0.60;;
6414;SDS011;3240;48.790;9.210;2022-12-31T06:37:48;1.13;;;0.70;;
6414;SDS011;3240;48.790;9.210;2022-12-31T06:40:16;0.60;;;0.47;;
6414;SDS011;3240;48.790;9.210;2022-12-31T06:42:44;0.60;;;0.50;;
6414;SDS011;3240;48.790;9.210;2022-12-31T06:45:12;2.20;;;0.60;;
6414;SDS011;3240;48.790;9.210;2022-12-31T06:47:40;2.13;;;0.53;;
6414;SDS011;3240;48.790;9.210;2022-12-31T06:50:08;1.80;;;0.60;;
6414;SDS011;3240;48.790;9.210;2022-12-31T06:52:36;2.10;;;0.60;;
6414;SDS011;3240;48.790;9.210;2022-12-31T06:55:05;1.20;;;0.57;;
6414;SDS011;3240;48.790;9.210;2022-12-31T06:57:33;0.70;;;0.40;;
6414;SDS011;3240;48.790;9.210;2022-12-31T07:00:01;0.83;;;0.80;;
6414;SDS011;3240;48.790;9.210;2022-12-31T07:03:08;1.03;;;0.73;;
6414;SDS011;3240;48.790;9.210;2022-12-31T07:05:20;1.73;;;0.60;;
6414;SDS011;3240;48.790;9.210;2022-12-31T07:07:49;0.63;;;0.50;;
6414;SDS011;3240;48.790;9.210;2022-12-31T07:10:35;1.75;;;0.50;;
6414;SDS011;3240;48.790;9.210;2022-12-31T07:13:04;0.60;;;0.50;;
6414;SDS011;3240;48.790;9.210;2022-12-31T07:15:41;0.70;;;0.50;;
6414;SDS011;3240;48.790;9.210;2022-12-31T07:18:14;3.83;;;0.70;;
6414;SDS011;3240;48.790;9.210;2022-12-31T07:20:35;0.97;;;0.50;;
6414;SDS011;3240;48.790;9.210;2022-12-31T07:23:03;0.93;;;0.60;;
6414;SDS011;3240;48.790;9.210;2022-12-31T07:25:31;1.87;;;0.53;;
6414;SDS011;3240;48.790;9.210;2022-12-31T07:28:04;1.27;;;0.60;;
6414;SDS011;3240;48.790;9.210;2022-12-31T07:35:49;0.90;;;0.57;;
6414;SDS011;3240;48.790;9.210;2022-12-31T07:38:19;0.80;;;0.60;;
6414;SDS011;3240;48.790;9.210;2022-12-31T07:40:50;1.13;;;0.77;;
6414;SDS011;3240;48.790;9.210;2022-12-31T07:43:17;1.00;;;0.50;;
6414;SDS011;3240;48.790;9.210;2022-12-31T07:46:17;0.60;;;0.60;;
6414;SDS011;3240;48.790;9.210;2022-12-31T07:48:27;0.97;;;0.63;;
6414;SDS011;3240;48.790;9.210;2022-12-31T07:50:55;0.60;;;0.40;;
6414;SDS011;3240;48.790;9.210;2022-12-31T07:53:23;0.77;;;0.50;;
6414;SDS011;3240;48.790;9.210;2022-12-31T07:55:53;2.60;;;1.07;;
6414;SDS011;3240;48.790;9.210;2022-12-31T07:58:21;0.77;;;0.57;;
6414;SDS011;3240;48.790;9.210;2022-12-31T08:00:48;7.03;;;0.70;;
6414;SDS011;3240;48.790;9.210;2022-12-31T08:06:09;1.53;;;0.60;;
6414;SDS011;3240;48.790;9.210;2022-12-31T08:11:16;2.30;;;0.60;;
6414;SDS011;3240;48.790;9.210;2022-12-31T08:13:41;1.07;;;0.73;;
6414;SDS011;3240;48.790;9.210;2022-12-31T08:16:09;0.60;;;0.50;;
6414;SDS011;3240;48.790;9.210;2022-12-31T08:18:37;1.27;;;0.50;;
6414;SDS011;3240;48.790;9.210;2022-12-31T08:21:42;1.00;;;0.70;;
6414;SDS011;3240;48.790;9.210;2022-12-31T08:24:00;1.23;;;0.50;;
6414;SDS011;3240;48.790;9.210;2022-12-31T08:26:37;0.73;;;0.60;;
6414;SDS011;3240;48.790;9.210;2022-12-31T08:29:12;0.60;;;0.60;;
6414;SDS011;3240;48.790;9.210;2022-12-31T08:31:43;0.83;;;0.77;;
6414;SDS011;3240;48.790;9.210;2022-12-31T08:34:13;4.80;;;0.80;;
6414;SDS011;3240;48.790;9.210;2022-12-31T08:36:40;0.87;;;0.60;;
6414;SDS011;3240;48.790;9.210;2022-12-31T08:41:42;0.97;;;0.50;;
6414;SDS011;3240;48.790;9.210;2022-12-31T08:46:45;1.00;;;0.60;;
6414;SDS011;3240;48.790;9.210;2022-12-31T08:49:11;1.07;;;0.60;;
6414;SDS011;3240;48.790;9.210;2022-12-31T08:51:39;1.40;;;0.80;;
6414;SDS011;3240;48.790;9.210;2022-12-31T08:54:09;0.97;;;0.63;;
6414;SDS011;3240;48.790;9.210;2022-12-31T08:59:28;1.03;;;0.87;;
6414;SDS011;3240;48.790;9.210;2022-12-31T09:04:52;2.60;;;0.60;;
6414;SDS011;3240;48.790;9.210;2022-12-31T09:07:21;0.90;;;0.63;;
6414;SDS011;3240;48.790;9.210;2022-12-31T09:09:54;0.97;;;0.50;;
6414;SDS011;3240;48.790;9.210;2022-12-31T09:12:23;4.30;;;0.73;;
6414;SDS011;3240;48.790;9.210;2022-12-31T09:14:50;0.97;;;0.60;;
6414;SDS011;3240;48.790;9.210;2022-12-31T09:17:24;6.20;;;0.60;;
6414;SDS011;3240;48.790;9.210;2022-12-31T09:19:45;0.90;;;0.57;;
6414;SDS011;3240;48.790;9.210;2022-12-31T09:22:13;1.67;;;0.70;;
6414;SDS011;3240;48.790;9.210;2022-12-31T09:24:42;2.10;;;0.63;;
6414;SDS011;3240;48.790;9.210;2022-12-31T09:27:12;0.83;;;0.67;;
6414;SDS011;3240;48.790;9.210;2022-12-31T09:30:10;0.77;;;0.60;;
6414;SDS011;3240;48.790;9.210;2022-12-31T09:32:25;1.53;;;0.70;;
6414;SDS011;3240;48.790;9.210;2022-12-31T09:34:53;1.17;;;0.67;;
6414;SDS011;3240;48.790;9.210;2022-12-31T09:37:23;2.60;;;0.80;;
6414;SDS011;3240;48.790;9.210;2022-12-31T09:39:48;0.80;;;0.50;;
6414;SDS011;3240;48.790;9.210;2022-12-31T09:42:24;3.30;;;0.63;;
6414;SDS011;3240;48.790;9.210;2022-12-31T09:44:52;1.27;;;0.70;;
6414;SDS011;3240;48.790;9.210;2022-12-31T09:47:32;0.97;;;0.63;;
6414;SDS011;3240;48.790;9.210;2022-12-31T09:50:13;0.90;;;0.50;;
6414;SDS011;3240;48.790;9.210;2022-12-31T09:52:41;0.87;;;0.53;;
6414;SDS011;3240;48.790;9.210;2022-12-31T09:57:38;1.70;;;0.63;;
6414;SDS011;3240;48.790;9.210;2022-12-31T10:00:15;1.10;;;0.60;;
6414;SDS011;3240;48.790;9.210;2022-12-31T10:02:42;0.80;;;0.60;;
6414;SDS011;3240;48.790;9.210;2022-12-31T10:07:50;1.00;;;0.70;;
6414;SDS011;3240;48.790;9.210;2022-12-31T10:10:23;1.00;;;0.77;;
6414;SDS011;3240;48.790;9.210;2022-12-31T10:13:30;3.90;;;0.70;;
6414;SDS011;3240;48.790;9.210;2022-12-31T10:15:52;0.90;;;0.83;;
6414;SDS011;3240;48.790;9.210;2022-12-31T10:18:28;0.70;;;0.43;;
6414;SDS011;3240;48.790;9.210;2022-12-31T10:20:59;3.33;;;0.83;;
6414;SDS011;3240;48.790;9.210;2022-12-31T10:26:03;0.97;;;0.57;;
6414;SDS011;3240;48.790;9.210;2022-12-31T10:28:30;2.97;;;0.60;;
6414;SDS011;3240;48.790;9.210;2022-12-31T10:31:06;1.37;;;0.67;;
6414;SDS011;3240;48.790;9.210;2022-12-31T10:33:36;2.50;;;0.60;;
6414;SDS011;3240;48.790;9.210;2022-12-31T10:36:07;1.00;;;0.60;;
6414;SDS011;3240;48.790;9.210;2022-12-31T10:38:33;1.33;;;0.60;;
6414;SDS011;3240;48.790;9.210;2022-12-31T10:43:53;1.30;;;0.60;;
6414;SDS011;3240;48.790;9.210;2022-12-31T10:49:31;1.40;;;0.80;;
6414;SDS011;3240;48.790;9.210;2022-12-31T10:51:44;1.93;;;0.70;;
6414;SDS011;3240;48.790;9.210;2022-12-31T10:56:53;1.63;;;0.80;;
6414;SDS011;3240;48.790;9.210;2022-12-31T10:59:30;0.60;;;0.50;;
6414;SDS011;3240;48.790;9.210;2022-12-31T11:02:01;1.37;;;0.80;;
6414;SDS011;3240;48.790;9.210;2022-12-31T11:09:52;2.00;;;0.60;;
6414;SDS011;3240;48.790;9.210;2022-12-31T11:12:34;1.43;;;0.83;;
6414;SDS011;3240;48.790;9.210;2022-12-31T11:15:02;1.77;;;0.70;;
6414;SDS011;3240;48.790;9.210;2022-12-31T11:17:30;1.23;;;0.60;;
6414;SDS011;3240;48.790;9.210;2022-12-31T11:19:59;3.80;;;0.50;;
6414;SDS011;3240;48.790;9.210;2022-12-31T11:22:34;0.80;;;0.60;;
6414;SDS011;3240;48.790;9.210;2022-12-31T11:25:02;0.80;;;0.40;;
6414;SDS011;3240;48.790;9.210;2022-12-31T11:33:28;0.80;;;0.50;;
6414;SDS011;3240;48.790;9.210;2022-12-31T11:35:41;1.30;;;0.60;;
6414;SDS011;3240;48.790;9.210;2022-12-31T11:38:22;1.00;;;0.50;;
6414;SDS011;3240;48.790;9.210;2022-12-31T11:41:07;0.80;;;0.60;;
6414;SDS011;3240;48.790;9.210;2022-12-31T11:43:36;0.80;;;0.53;;
6414;SDS011;3240;48.790;9.210;2022-12-31T11:46:22;1.00;;;0.50;;
6414;SDS011;3240;48.790;9.210;2022-12-31T11:51:26;0.90;;;0.57;;
6414;SDS011;3240;48.790;9.210;2022-12-31T11:54:06;1.50;;;0.77;;
6414;SDS011;3240;48.790;9.210;2022-12-31T11:56:31;0.60;;;0.50;;
6414;SDS011;3240;48.790;9.210;2022-12-31T11:58:58;3.80;;;0.63;;
6414;SDS011;3240;48.790;9.210;2022-12-31T12:01:31;1.93;;;0.90;;
6414;SDS011;3240;48.790;9.210;2022-12-31T12:03:57;1.73;;;0.70;;
6414;SDS011;3240;48.790;9.210;2022-12-31T12:06:27;1.10;;;0.90;;
6414;SDS011;3240;48.790;9.210;2022-12-31T12:08:55;0.80;;;0.70;;
6414;SDS011;3240;48.790;9.210;2022-12-31T12:11:23;3.10;;;0.87;;
6414;SDS011;3240;48.790;9.210;2022-12-31T12:13:51;1.93;;;0.87;;
6414;SDS011;3240;48.790;9.210;2022-12-31T12:16:20;1.63;;;0.60;;
6414;SDS011;3240;48.790;9.210;2022-12-31T12:18:50;2.47;;;0.70;;
6414;SDS011;3240;48.790;9.210;2022-12-31T12:21:17;1.03;;;0.60;;
6414;SDS011;3240;48.790;9.210;2022-12-31T12:26:26;1.83;;;0.60;;
6414;SDS011;3240;48.790;9.210;2022-12-31T12:28:52;1.50;;;0.70;;
6414;SDS011;3240;48.790;9.210;2022-12-31T12:31:21;1.80;;;0.80;;
6414;SDS011;3240;48.790;9.210;2022-12-31T12:33:49;1.07;;;0.70;;
6414;SDS011;3240;48.790;9.210;2022-12-31T12:36:17;0.80;;;0.70;;
6414;SDS011;3240;48.790;9.210;2022-12-31T12:38:44;0.80;;;0.53;;
6414;SDS011;3240;48.790;9.210;2022-12-31T12:43:46;2.10;;;0.67;;
6414;SDS011;3240;48.790;9.210;2022-12-31T12:48:52;0.80;;;0.50;;
6414;SDS011;3240;48.790;9.210;2022-12-31T12:56:34;4.10;;;0.70;;
6414;SDS011;3240;48.790;9.210;2022-12-31T13:01:41;1.67;;;0.70;;
6414;SDS011;3240;48.790;9.210;2022-12-31T13:07:05;2.43;;;0.70;;
6414;SDS011;3240;48.790;9.210;2022-12-31T13:12:35;1.10;;;0.57;;
6414;SDS011;3240;48.790;9.210;2022-12-31T13:14:49;1.63;;;0.80;;
6414;SDS011;3240;48.790;9.210;2022-12-31T13:17:25;1.00;;;0.70;;
6414;SDS011;3240;48.790;9.210;2022-12-31T13:19:48;0.80;;;0.57;;
6414;SDS011;3240;48.790;9.210;2022-12-31T13:22:22;1.17;;;0.70;;
6414;SDS011;3240;48.790;9.210;2022-12-31T13:24:52;0.70;;;0.60;;
6414;SDS011;3240;48.790;9.210;2022-12-31T13:27:28;0.70;;;0.67;;
6414;SDS011;3240;48.790;9.210;2022-12-31T13:29:59;1.13;;;0.80;;
6414;SDS011;3240;48.790;9.210;2022-12-31T13:35:20;0.93;;;0.57;;
6414;SDS011;3240;48.790;9.210;2022-12-31T13:37:49;0.90;;;0.60;;
6414;SDS011;3240;48.790;9.210;2022-12-31T13:40:20;0.77;;;0.60;;
6414;SDS011;3240;48.790;9.210;2022-12-31T13:42:51;1.30;;;0.60;;
6414;SDS011;3240;48.790;9.210;2022-12-31T13:45:17;2.07;;;0.90;;
6414;SDS011;3240;48.790;9.210;2022-12-31T13:47:45;0.70;;;0.60;;
6414;SDS011;3240;48.790;9.210;2022-12-31T13:50:17;1.20;;;0.77;;
6414;SDS011;3240;48.790;9.210;2022-12-31T13:52:45;1.47;;;0.63;;
6414;SDS011;3240;48.790;9.210;2022-12-31T13:55:18;3.00;;;0.70;;
6414;SDS011;3240;48.790;9.210;2022-12-31T13:57:44;0.70;;;0.43;;
6414;SDS011;3240;48.790;9.210;2022-12-31T14:00:16;0.97;;;0.60;;
6414;SDS011;3240;48.790;9.210;2022-12-31T14:02:43;1.37;;;0.80;;
6414;SDS011;3240;48.790;9.210;2022-12-31T14:05:13;4.40;;;0.60;;
6414;SDS011;3240;48.790;9.210;2022-12-31T14:07:58;1.63;;;0.90;;
6414;SDS011;3240;48.790;9.210;2022-12-31T14:10:35;0.60;;;0.50;;
6414;SDS011;3240;48.790;9.210;2022-12-31T14:13:06;1.70;;;0.80;;
6414;SDS011;3240;48.790;9.210;2022-12-31T14:15:31;2.60;;;1.20;;
6414;SDS011;3240;48.790;9.210;2022-12-31T14:20:36;2.00;;;1.00;;
6414;SDS011;3240;48.790;9.210;2022-12-31T14:23:05;2.00;;;1.50;;
6414;SDS011;3240;48.790;9.210;2022-12-31T14:25:32;1.30;;;1.10;;
6414;SDS011;3240;48.790;9.210;2022-12-31T14:27:58;1.60;;;0.93;;
6414;SDS011;3240;48.790;9.210;2022-12-31T14:30:27;0.73;;;0.60;;
6414;SDS011;3240;48.790;9.210;2022-12-31T14:33:04;1.37;;;0.80;;
6414;SDS011;3240;48.790;9.210;2022-12-31T14:35:36;0.70;;;0.60;;
6414;SDS011;3240;48.790;9.210;2022-12-31T14:40:47;1.57;;;1.00;;
6414;SDS011;3240;48.790;9.210;2022-12-31T14:43:19;1.00;;;0.70;;
6414;SDS011;3240;48.790;9.210;2022-12-31T14:48:36;1.63;;;0.70;;
6414;SDS011;3240;48.790;9.210;2022-12-31T14:51:01;2.10;;;0.90;;
6414;SDS011;3240;48.790;9.210;2022-12-31T14:53:29;1.00;;;0.70;;
6414;SDS011;3240;48.790;9.210;2022-12-31T14:55:59;2.60;;;1.50;;
6414;SDS011;3240;48.790;9.210;2022-12-31T14:58:32;3.00;;;1.00;;
6414;SDS011;3240;48.790;9.210;2022-12-31T15:01:00;1.07;;;0.70;;
6414;SDS011;3240;48.790;9.210;2022-12-31T15:08:51;0.93;;;0.77;;
6414;SDS011;3240;48.790;9.210;2022-12-31T15:11:27;2.87;;;1.00;;
6414;SDS011;3240;48.790;9.210;2022-12-31T15:14:06;1.40;;;0.70;;
6414;SDS011;3240;48.790;9.210;2022-12-31T15:19:15;2.00;;;0.97;;
6414;SDS011;3240;48.790;9.210;2022-12-31T15:21:38;1.57;;;1.10;;
6414;SDS011;3240;48.790;9.210;2022-12-31T15:26:37;4.83;;;1.03;;
6414;SDS011;3240;48.790;9.210;2022-12-31T15:29:07;2.90;;;1.20;;
6414;SDS011;3240;48.790;9.210;2022-12-31T15:31:34;2.53;;;1.30;;
6414;SDS011;3240;48.790;9.210;2022-12-31T15:34:03;1.53;;;1.33;;
6414;SDS011;3240;48.790;9.210;2022-12-31T15:36:33;1.50;;;0.93;;
6414;SDS011;3240;48.790;9.210;2022-12-31T15:39:04;2.80;;;1.60;;
6414;SDS011;3240;48.790;9.210;2022-12-31T15:41:38;3.67;;;1.47;;
6414;SDS011;3240;48.790;9.210;2022-12-31T15:44:07;1.63;;;1.10;;
6414;SDS011;3240;48.790;9.210;2022-12-31T15:46:36;1.50;;;1.20;;
6414;SDS011;3240;48.790;9.210;2022-12-31T15:49:05;2.50;;;1.10;;
6414;SDS011;3240;48.790;9.210;2022-12-31T15:51:33;1.10;;;0.90;;
6414;SDS011;3240;48.790;9.210;2022-12-31T15:54:00;1.37;;;1.17;;
6414;SDS011;3240;48.790;9.210;2022-12-31T15:56:33;1.30;;;0.90;;
6414;SDS011;3240;48.790;9.210;2022-12-31T15:59:01;2.70;;;1.10;;
6414;SDS011;3240;48.790;9.210;2022-12-31T16:01:31;1.20;;;1.00;;
6414;SDS011;3240;48.790;9.210;2022-12-31T16:04:00;1.83;;;1.20;;
6414;SDS011;3240;48.790;9.210;2022-12-31T16:06:28;1.70;;;1.10;;
6414;SDS011;3240;48.790;9.210;2022-12-31T16:08:54;1.37;;;1.03;;
6414;SDS011;3240;48.790;9.210;2022-12-31T16:11:22;3.23;;;1.40;;
6414;SDS011;3240;48.790;9.210;2022-12-31T16:13:51;2.27;;;1.67;;
6414;SDS011;3240;48.790;9.210;2022-12-31T16:16:21;2.33;;;1.60;;
6414;SDS011;3240;48.790;9.210;2022-12-31T16:18:49;3.43;;;1.90;;
6414;SDS011;3240;48.790;9.210;2022-12-31T16:21:23;2.50;;;1.60;;
6414;SDS011;3240;48.790;9.210;2022-12-31T16:23:51;3.03;;;1.63;;
6414;SDS011;3240;48.790;9.210;2022-12-31T16:26:18;3.60;;;2.10;;
6414;SDS011;3240;48.790;9.210;2022-12-31T16:28:47;3.80;;;1.90;;
6414;SDS011;3240;48.790;9.210;2022-12-31T16:31:15;5.50;;;2.10;;
6414;SDS011;3240;48.790;9.210;2022-12-31T16:33:43;6.23;;;2.40;;
6414;SDS011;3240;48.790;9.210;2022-12-31T16:36:20;3.50;;;2.50;;
6414;SDS011;3240;48.790;9.210;2022-12-31T16:38:47;4.27;;;2.67;;
6414;SDS011;3240;48.790;9.210;2022-12-31T16:41:16;4.20;;;2.60;;
6414;SDS011;3240;48.790;9.210;2022-12-31T16:43:43;3.60;;;2.20;;
6414;SDS011;3240;48.790;9.210;2022-12-31T16:46:20;2.63;;;2.27;;
6414;SDS011;3240;48.790;9.210;2022-12-31T16:48:48;3.03;;;2.50;;
6414;SDS011;3240;48.790;9.210;2022-12-31T16:51:16;3.73;;;2.90;;
6414;SDS011;3240;48.790;9.210;2022-12-31T16:53:43;6.33;;;2.77;;
6414;SDS011;3240;48.790;9.210;2022-12-31T16:56:14;3.50;;;3.00;;
6414;SDS011;3240;48.790;9.210;2022-12-31T16:58:40;5.40;;;3.20;;
6414;SDS011;3240;48.790;9.210;2022-12-31T17:03:43;5.23;;;3.53;;
6414;SDS011;3240;48.790;9.210;2022-12-31T17:06:12;5.80;;;3.30;;
6414;SDS011;3240;48.790;9.210;2022-12-31T17:08:41;7.03;;;4.20;;